Time;durP1;ratioP1;P1;durP2;ratioP2;P2;SDS_P1;SDS_P2;PMS_P1;PMS_P2;Temp;Humidity;BMP_temperature;BMP_pressure;BME280_temperature;BME280_humidity;BME280_pressure;Samples;Min_cycle;Max_cycle;Signal;HPM_P1;HPM_P2
2022/04/28 00:01:58;;;;;;;4.65;2.83;;;8.40;93.90;;;;;;5096848;28;20027;-41
2022/04/28 00:04:24;;;;;;;8.25;3.97;;;8.40;93.90;;;;;;5085672;28;20027;-41
2022/04/28 00:06:49;;;;;;;7.28;3.42;;;8.30;94.00;;;;;;5097883;28;20710;-41
2022/04/28 00:09:15;;;;;;;7.60;3.80;;;8.30;94.00;;;;;;5085670;28;20070;-40
2022/04/28 00:11:49;;;;;;;9.75;4.22;;;8.30;94.00;;;;;;5098173;28;20112;-41
2022/04/28 00:14:16;;;;;;;9.77;4.13;;;8.30;94.20;;;;;;5084794;28;20051;-42
2022/04/28 00:16:42;;;;;;;7.13;4.10;;;8.20;94.50;;;;;;5098596;28;20027;-43
2022/04/28 00:19:07;;;;;;;6.72;3.45;;;8.20;94.30;;;;;;5085927;28;20028;-42
2022/04/28 00:21:33;;;;;;;7.13;4.20;;;8.20;94.40;;;;;;5094408;28;20526;-40
2022/04/28 00:23:59;;;;;;;8.18;4.45;;;8.20;94.50;;;;;;5088615;28;20032;-41
2022/04/28 00:26:24;;;;;;;8.90;4.90;;;8.10;94.60;;;;;;5092369;28;20031;-42
2022/04/28 00:28:50;;;;;;;8.88;4.75;;;8.10;94.70;;;;;;5090346;28;20423;-41
2022/04/28 00:31:15;;;;;;;10.80;4.70;;;8.10;94.70;;;;;;5090253;28;20031;-41
2022/04/28 00:33:41;;;;;;;5.78;4.13;;;8.10;94.80;;;;;;5093555;28;20137;-41
2022/04/28 00:36:07;;;;;;;7.40;4.40;;;8.10;94.80;;;;;;5087685;28;20020;-43
2022/04/28 00:38:33;;;;;;;5.82;4.30;;;8.00;94.90;;;;;;5095944;28;20114;-41
2022/04/28 00:40:59;;;;;;;6.85;4.57;;;8.00;94.90;;;;;;5086915;28;20431;-41
2022/04/28 00:43:28;;;;;;;8.15;4.32;;;8.00;94.90;;;;;;5096146;28;20065;-43
2022/04/28 00:45:55;;;;;;;8.05;3.90;;;8.00;95.00;;;;;;5086563;28;20035;-42
2022/04/28 00:51:11;;;;;;;6.13;4.18;;;7.90;95.00;;;;;;5086061;28;20030;-41
2022/04/28 00:53:57;;;;;;;9.27;4.20;;;7.90;95.40;;;;;;5096499;28;20047;-40
2022/04/28 00:56:23;;;;;;;8.63;4.40;;;7.90;95.20;;;;;;5085532;28;20029;-42
2022/04/28 00:58:49;;;;;;;9.68;4.57;;;7.90;95.20;;;;;;5095783;28;20051;-41
2022/04/28 01:01:16;;;;;;;9.48;4.35;;;7.90;95.30;;;;;;5085435;28;20370;-42
2022/04/28 01:03:41;;;;;;;5.88;3.75;;;7.80;95.40;;;;;;5096959;28;20024;-42
2022/04/28 01:06:07;;;;;;;7.53;4.25;;;7.90;95.40;;;;;;5085402;28;20027;-44
2022/04/28 01:08:33;;;;;;;9.52;4.53;;;7.80;95.40;;;;;;5097156;28;20031;-42
2022/04/28 01:10:59;;;;;;;8.93;4.25;;;7.80;95.40;;;;;;5085165;28;20022;-43
2022/04/28 01:13:24;;;;;;;7.03;4.45;;;7.80;95.50;;;;;;5096037;28;20016;-41
2022/04/28 01:15:50;;;;;;;9.70;5.32;;;7.80;95.60;;;;;;5086602;28;20173;-43
2022/04/28 01:18:19;;;;;;;8.23;4.40;;;7.80;95.60;;;;;;5092886;28;20051;-42
2022/04/28 01:20:44;;;;;;;7.40;4.30;;;7.80;95.60;;;;;;5089504;28;20563;-42
2022/04/28 01:23:11;;;;;;;6.72;4.30;;;7.70;95.70;;;;;;5095498;28;20120;-41
2022/04/28 01:25:36;;;;;;;12.88;4.80;;;7.70;95.70;;;;;;5094521;28;20348;-41
2022/04/28 01:28:02;;;;;;;9.65;4.60;;;7.70;95.80;;;;;;5092456;28;20509;-42
2022/04/28 01:30:28;;;;;;;8.05;3.90;;;7.60;95.90;;;;;;5097640;28;20032;-42
2022/04/28 01:32:57;;;;;;;9.23;4.50;;;7.60;96.00;;;;;;5089771;28;20028;-42
2022/04/28 01:35:23;;;;;;;9.07;5.13;;;7.60;96.20;;;;;;5079650;28;20028;-42
2022/04/28 01:37:48;;;;;;;7.35;4.70;;;7.50;96.30;;;;;;5089721;28;20605;-40
2022/04/28 01:40:14;;;;;;;6.93;4.28;;;7.50;96.30;;;;;;5099239;28;20111;-42
2022/04/28 01:42:45;;;;;;;11.55;4.85;;;7.50;96.30;;;;;;5088980;28;20186;-41
2022/04/28 01:45:11;;;;;;;8.23;4.70;;;7.50;96.40;;;;;;5096630;28;20062;-42
2022/04/28 01:47:37;;;;;;;7.65;4.75;;;7.50;96.40;;;;;;5108202;28;20075;-41
2022/04/28 01:50:04;;;;;;;10.55;5.60;;;7.50;96.50;;;;;;5096029;28;20059;-42
2022/04/28 01:55:14;;;;;;;9.85;5.00;;;7.40;96.70;;;;;;5096106;28;20115;-41
2022/04/28 01:57:39;;;;;;;10.57;5.28;;;7.40;96.70;;;;;;5108415;28;20142;-42
2022/04/28 02:00:07;;;;;;;9.20;4.97;;;7.40;96.70;;;;;;5095764;28;20046;-41
2022/04/28 02:02:36;;;;;;;7.00;4.65;;;7.40;96.80;;;;;;5108495;28;20046;-41
2022/04/28 02:05:06;;;;;;;8.07;4.57;;;7.30;96.80;;;;;;5097865;28;20493;-41
2022/04/28 02:07:35;;;;;;;6.75;4.63;;;7.30;96.90;;;;;;5105630;28;20032;-42
2022/04/28 02:10:02;;;;;;;9.13;4.60;;;7.30;96.90;;;;;;5100398;28;20093;-39
2022/04/28 02:12:28;;;;;;;8.70;4.88;;;7.30;97.00;;;;;;5104956;28;20034;-40
2022/04/28 02:14:57;;;;;;;13.80;4.97;;;7.30;97.10;;;;;;5102027;28;20364;-41
2022/04/28 02:17:24;;;;;;;8.98;5.20;;;7.20;97.10;;;;;;5102314;28;20024;-43
2022/04/28 02:19:50;;;;;;;13.15;5.40;;;7.20;97.20;;;;;;5104530;28;20028;-42
2022/04/28 02:22:16;;;;;;;10.13;5.25;;;7.20;97.30;;;;;;5099144;28;20109;-43
2022/04/28 02:24:43;;;;;;;6.25;4.50;;;7.20;97.30;;;;;;5106186;28;20059;-40
2022/04/28 02:27:08;;;;;;;8.68;4.72;;;7.10;97.40;;;;;;5097157;28;20494;-42
2022/04/28 02:29:34;;;;;;;9.73;4.47;;;7.10;97.40;;;;;;5105459;28;20096;-42
2022/04/28 02:32:00;;;;;;;9.10;5.47;;;7.10;97.50;;;;;;5096302;28;20031;-40
2022/04/28 02:34:26;;;;;;;10.57;5.05;;;7.00;97.60;;;;;;5107048;28;20491;-42
2022/04/28 02:36:52;;;;;;;11.10;5.43;;;7.00;97.60;;;;;;5095849;28;20088;-39
2022/04/28 02:39:18;;;;;;;9.68;5.13;;;7.00;97.80;;;;;;5108085;28;20072;-41
2022/04/28 02:41:47;;;;;;;9.15;5.20;;;7.00;97.80;;;;;;5093728;28;20375;-42
2022/04/28 02:44:16;;;;;;;8.85;5.10;;;6.90;97.80;;;;;;5108005;28;20027;-42
2022/04/28 02:46:48;;;;;;;8.25;4.72;;;6.90;97.90;;;;;;5095156;28;20066;-42
2022/04/28 02:49:15;;;;;;;14.77;6.40;;;6.90;97.90;;;;;;5066614;28;20101;-43
2022/04/28 02:51:41;;;;;;;8.80;4.45;;;6.80;98.00;;;;;;5093805;28;20028;-42
2022/04/28 02:54:07;;;;;;;8.50;5.03;;;6.90;98.10;;;;;;5089197;28;20039;-38
2022/04/28 02:56:33;;;;;;;6.97;4.97;;;6.80;98.10;;;;;;5095267;28;20062;-40
2022/04/28 02:58:59;;;;;;;8.63;4.90;;;6.80;98.20;;;;;;5092775;28;20027;-37
2022/04/28 03:01:26;;;;;;;7.95;4.93;;;6.80;98.20;;;;;;5094766;28;20016;-40
2022/04/28 03:03:55;;;;;;;6.35;4.53;;;6.80;98.40;;;;;;5094078;28;20024;-41
2022/04/28 03:11:52;;;;;;;7.70;4.72;;;6.80;98.50;;;;;;5093316;28;20078;-38
2022/04/28 03:14:17;;;;;;;9.25;4.03;;;6.80;98.60;;;;;;5092468;28;20720;-40
2022/04/28 03:16:43;;;;;;;6.85;3.75;;;6.80;98.60;;;;;;5090102;28;20030;-41
2022/04/28 03:19:09;;;;;;;5.78;3.78;;;6.80;98.60;;;;;;5095175;28;20056;-41
2022/04/28 03:21:43;;;;;;;6.63;4.10;;;6.80;98.60;;;;;;5087545;28;20040;-42
2022/04/28 03:24:10;;;;;;;7.65;4.28;;;6.80;98.70;;;;;;5096307;28;20795;-41
2022/04/28 03:26:37;;;;;;;10.30;4.30;;;6.80;98.70;;;;;;5087221;28;20531;-41
2022/04/28 03:29:03;;;;;;;5.72;3.78;;;6.80;98.80;;;;;;5098860;28;20045;-38
2022/04/28 03:31:28;;;;;;;6.45;4.05;;;6.80;98.90;;;;;;5086776;28;20044;-41
2022/04/28 03:33:57;;;;;;;6.53;3.65;;;6.80;98.90;;;;;;5098116;28;20590;-40
2022/04/28 03:39:07;;;;;;;6.28;4.50;;;6.70;99.00;;;;;;5094860;28;20612;-41
2022/04/28 03:41:32;;;;;;;5.88;3.35;;;6.70;99.00;;;;;;5106452;28;20020;-42
2022/04/28 03:43:58;;;;;;;4.70;3.47;;;6.70;99.00;;;;;;5093280;28;20059;-42
2022/04/28 03:46:24;;;;;;;9.55;4.30;;;6.70;99.00;;;;;;5105802;28;20115;-40
2022/04/28 03:48:50;;;;;;;7.25;4.38;;;6.70;99.00;;;;;;5093694;28;20134;-35
2022/04/28 03:51:15;;;;;;;6.47;3.90;;;6.70;99.10;;;;;;5107229;28;20016;-44
2022/04/28 03:53:41;;;;;;;8.18;4.05;;;6.70;99.10;;;;;;5094743;28;20028;-40
2022/04/28 03:56:09;;;;;;;9.55;4.35;;;6.70;99.10;;;;;;5104802;28;20066;-40
2022/04/28 03:58:35;;;;;;;7.57;3.92;;;6.80;99.40;;;;;;5097212;28;20063;-42
2022/04/28 04:01:01;;;;;;;5.80;3.63;;;6.70;99.10;;;;;;5101507;28;20016;-39
2022/04/28 04:03:26;;;;;;;5.47;4.13;;;6.70;99.10;;;;;;5100318;28;20115;-42
2022/04/28 04:05:52;;;;;;;6.97;3.78;;;6.70;99.10;;;;;;5099120;28;20053;-41
2022/04/28 04:08:17;;;;;;;8.45;4.63;;;6.70;99.20;;;;;;5102507;28;20039;-43
2022/04/28 04:10:46;;;;;;;6.78;3.88;;;6.70;99.20;;;;;;5096362;28;20406;-39
2022/04/28 04:13:11;;;;;;;7.70;4.78;;;6.70;99.30;;;;;;5104510;28;20058;-40
2022/04/28 04:15:37;;;;;;;7.82;4.10;;;6.60;99.30;;;;;;5094316;28;20055;-41
2022/04/28 04:18:03;;;;;;;6.93;4.13;;;6.60;99.40;;;;;;5104626;28;20039;-40
2022/04/28 04:20:29;;;;;;;7.50;4.50;;;6.60;99.40;;;;;;5093604;28;20601;-40
2022/04/28 04:22:54;;;;;;;7.05;4.65;;;6.60;99.50;;;;;;5106030;28;20110;-40
2022/04/28 04:25:21;;;;;;;6.35;4.05;;;6.60;99.50;;;;;;5092681;28;20791;-41
2022/04/28 04:27:49;;;;;;;7.32;4.28;;;6.60;99.50;;;;;;5105253;28;20045;-42
2022/04/28 04:33:02;;;;;;;6.57;4.50;;;6.50;99.50;;;;;;5106106;28;20073;-41
2022/04/28 04:35:27;;;;;;;7.85;4.28;;;6.60;99.60;;;;;;5091618;28;20357;-41
2022/04/28 04:37:53;;;;;;;5.68;3.58;;;6.60;99.60;;;;;;5085562;28;20487;-40
2022/04/28 04:40:20;;;;;;;8.63;4.13;;;6.60;99.70;;;;;;5096175;28;20019;-40
2022/04/28 04:42:45;;;;;;;7.78;4.00;;;6.60;99.70;;;;;;5086635;28;20032;-38
2022/04/28 04:45:11;;;;;;;9.82;4.80;;;6.50;99.70;;;;;;5094010;28;20027;-41
2022/04/28 04:47:38;;;;;;;6.05;4.07;;;6.60;99.80;;;;;;5089157;28;20447;-43
2022/04/28 04:50:06;;;;;;;8.70;4.50;;;6.50;99.90;;;;;;5091019;28;20100;-41
2022/04/28 04:52:31;;;;;;;9.38;3.90;;;6.60;99.90;;;;;;5091780;28;20021;-42
2022/04/28 04:54:57;;;;;;;7.03;4.65;;;6.60;99.90;;;;;;5089219;28;20067;-41
2022/04/28 04:57:23;;;;;;;9.50;4.57;;;6.60;99.90;;;;;;5093986;28;20557;-41
2022/04/28 04:59:48;;;;;;;12.70;5.47;;;6.60;99.90;;;;;;5087676;28;20016;-42
2022/04/28 05:02:14;;;;;;;7.60;4.85;;;6.60;99.90;;;;;;5096168;28;20031;-41
2022/04/28 05:04:39;;;;;;;10.57;4.68;;;6.60;99.90;;;;;;5086789;28;20031;-41
2022/04/28 05:07:05;;;;;;;9.60;4.70;;;6.70;99.90;;;;;;5097241;28;20039;-41
2022/04/28 05:09:30;;;;;;;9.27;4.82;;;6.70;99.90;;;;;;5084745;28;20858;-41
2022/04/28 05:11:59;;;;;;;7.22;4.68;;;6.70;99.90;;;;;;5098087;28;20024;-41
2022/04/28 05:14:24;;;;;;;8.35;5.00;;;6.70;99.90;;;;;;5085060;28;20331;-41
2022/04/28 05:16:50;;;;;;;7.05;4.75;;;6.70;99.90;;;;;;5097331;28;20482;-38
2022/04/28 05:19:15;;;;;;;10.10;4.78;;;6.80;99.90;;;;;;5084799;28;20020;-39
2022/04/28 05:21:41;;;;;;;8.55;4.55;;;6.80;99.90;;;;;;5096639;28;20019;-42
2022/04/28 05:24:06;;;;;;;7.90;5.10;;;6.80;99.90;;;;;;5086685;28;20024;-41
2022/04/28 05:26:32;;;;;;;8.85;4.88;;;6.80;99.90;;;;;;5093402;28;20020;-41
2022/04/28 05:28:57;;;;;;;7.40;4.72;;;6.90;99.90;;;;;;5089583;28;20032;-41
2022/04/28 05:31:23;;;;;;;8.45;5.30;;;6.90;99.90;;;;;;5089559;28;20043;-41
2022/04/28 05:33:48;;;;;;;9.10;4.82;;;7.00;99.90;;;;;;5092871;28;20032;-40
2022/04/28 05:36:15;;;;;;;6.63;5.00;;;7.00;99.90;;;;;;5088561;28;20020;-43
2022/04/28 05:38:42;;;;;;;9.55;4.38;;;7.10;99.90;;;;;;5093298;28;20032;-40
2022/04/28 05:41:08;;;;;;;7.30;4.10;;;7.10;99.90;;;;;;5086835;28;20020;-42
2022/04/28 05:46:19;;;;;;;9.10;4.55;;;7.20;99.90;;;;;;5069165;28;20605;-41
2022/04/28 05:48:45;;;;;;;8.20;4.40;;;7.20;99.90;;;;;;5095071;28;20048;-41
2022/04/28 05:51:12;;;;;;;7.35;4.07;;;7.20;99.90;;;;;;5085650;28;20094;-42
2022/04/28 05:53:38;;;;;;;7.25;3.97;;;7.30;99.90;;;;;;5092579;28;20024;-40
2022/04/28 05:56:04;;;;;;;7.55;3.55;;;7.30;99.90;;;;;;5083803;28;20012;-39
2022/04/28 05:58:30;;;;;;;9.05;4.03;;;7.30;99.90;;;;;;5089325;28;20394;-42
2022/04/28 06:00:55;;;;;;;7.18;4.03;;;7.40;99.90;;;;;;5104626;28;20032;-41
2022/04/28 06:03:21;;;;;;;8.38;4.25;;;7.50;99.90;;;;;;5091342;28;20028;-41
2022/04/28 06:05:46;;;;;;;9.13;4.18;;;7.50;99.90;;;;;;5103892;28;20023;-42
2022/04/28 06:08:12;;;;;;;7.70;3.90;;;7.50;99.90;;;;;;5096396;28;20112;-41
2022/04/28 06:10:38;;;;;;;8.40;3.90;;;7.60;99.90;;;;;;5106473;28;20186;-41
2022/04/28 06:13:04;;;;;;;9.75;4.78;;;7.60;99.90;;;;;;5099119;28;20173;-38
2022/04/28 06:15:30;;;;;;;11.40;4.20;;;7.70;99.90;;;;;;5102627;28;20592;-42
2022/04/28 06:17:55;;;;;;;11.82;6.15;;;7.70;99.90;;;;;;5102374;28;20019;-43
2022/04/28 06:20:21;;;;;;;7.10;4.40;;;7.70;99.90;;;;;;5100020;28;20054;-41
2022/04/28 06:22:46;;;;;;;8.85;4.47;;;7.80;99.90;;;;;;5104329;28;20124;-42
2022/04/28 06:25:13;;;;;;;6.43;4.05;;;7.80;99.90;;;;;;5098458;28;20035;-41
2022/04/28 06:27:39;;;;;;;7.72;4.60;;;7.80;99.80;;;;;;5106428;28;20080;-43
2022/04/28 06:30:05;;;;;;;11.13;4.40;;;7.90;99.80;;;;;;5097519;28;20175;-41
2022/04/28 06:32:31;;;;;;;8.57;4.15;;;7.90;99.70;;;;;;5106636;28;20043;-40
2022/04/28 06:34:57;;;;;;;9.40;4.28;;;7.90;99.70;;;;;;5097062;28;20064;-41
2022/04/28 06:37:25;;;;;;;10.93;4.10;;;8.00;99.60;;;;;;5089051;28;20375;-42
2022/04/28 06:39:50;;;;;;;7.72;3.60;;;8.00;99.50;;;;;;5101461;28;20031;-41
2022/04/28 06:42:19;;;;;;;7.40;3.97;;;8.10;99.40;;;;;;5106968;28;20072;-41
2022/04/28 06:44:44;;;;;;;10.00;4.15;;;8.10;99.30;;;;;;5094860;28;20028;-43
2022/04/28 06:47:09;;;;;;;6.60;3.60;;;8.20;99.30;;;;;;5108607;28;20019;-41
2022/04/28 06:49:37;;;;;;;8.48;3.70;;;8.20;99.10;;;;;;5095515;28;20086;-41
2022/04/28 06:52:02;;;;;;;8.43;3.10;;;8.20;98.90;;;;;;5106687;28;20045;-40
2022/04/28 06:54:28;;;;;;;7.25;3.40;;;8.30;98.90;;;;;;5097579;28;20101;-41
2022/04/28 06:56:53;;;;;;;6.45;3.33;;;8.30;98.90;;;;;;5103118;28;20210;-41
2022/04/28 06:59:20;;;;;;;7.63;3.22;;;8.40;98.80;;;;;;5101379;28;20060;-43
2022/04/28 07:01:46;;;;;;;8.27;3.58;;;8.40;98.70;;;;;;5100284;28;20024;-42
2022/04/28 07:04:12;;;;;;;7.55;3.58;;;8.40;98.50;;;;;;5104809;28;20529;-43
2022/04/28 07:06:40;;;;;;;7.38;3.05;;;8.50;98.50;;;;;;5098379;28;20791;-43
2022/04/28 07:09:05;;;;;;;7.35;3.72;;;8.50;98.40;;;;;;5105567;28;20027;-42
2022/04/28 07:11:31;;;;;;;7.45;3.30;;;8.60;98.40;;;;;;5096188;28;20015;-41
2022/04/28 07:13:56;;;;;;;6.80;3.47;;;8.60;98.40;;;;;;5106992;28;20040;-40
2022/04/28 07:16:22;;;;;;;8.93;3.42;;;8.70;98.30;;;;;;5095535;28;20015;-44
2022/04/28 07:18:47;;;;;;;6.93;3.25;;;8.70;98.30;;;;;;5108084;28;20036;-43
2022/04/28 07:21:13;;;;;;;6.45;2.92;;;8.70;98.10;;;;;;5100319;28;20039;-43
2022/04/28 07:23:38;;;;;;;7.68;2.92;;;8.80;98.10;;;;;;5086847;28;20062;-41
2022/04/28 07:26:04;;;;;;;7.18;3.55;;;8.80;98.00;;;;;;5099603;28;20020;-42
2022/04/28 07:28:30;;;;;;;10.70;3.08;;;8.90;97.90;;;;;;5086365;28;20113;-41
2022/04/28 07:30:56;;;;;;;9.25;3.55;;;8.90;97.90;;;;;;5097028;28;20027;-41
2022/04/28 07:33:21;;;;;;;7.80;3.17;;;9.00;97.80;;;;;;5089546;28;20464;-42
2022/04/28 07:35:47;;;;;;;8.18;3.05;;;9.00;97.60;;;;;;5088569;28;20471;-42
2022/04/28 07:38:12;;;;;;;6.13;3.22;;;9.10;97.60;;;;;;5086361;28;20031;-41
2022/04/28 07:40:38;;;;;;;8.45;4.18;;;9.10;97.40;;;;;;5093312;28;20028;-41
2022/04/28 07:43:04;;;;;;;6.50;3.13;;;9.10;97.30;;;;;;5099322;28;20556;-40
2022/04/28 07:45:30;;;;;;;5.90;3.30;;;9.20;97.40;;;;;;5102980;28;20031;-42
2022/04/28 07:47:55;;;;;;;8.75;3.25;;;9.20;97.30;;;;;;5096746;28;20047;-43
2022/04/28 07:50:21;;;;;;;8.57;3.17;;;9.20;97.30;;;;;;5105119;28;20016;-43
2022/04/28 07:52:47;;;;;;;5.28;2.83;;;9.30;97.20;;;;;;5094795;28;20032;-41
2022/04/28 07:55:13;;;;;;;8.70;3.10;;;9.30;97.20;;;;;;5105791;28;20387;-39
2022/04/28 07:57:41;;;;;;;6.70;2.83;;;9.30;97.10;;;;;;5094334;28;20042;-40
2022/04/28 08:00:08;;;;;;;8.07;3.20;;;9.40;97.10;;;;;;5106204;28;20680;-42
2022/04/28 08:02:36;;;;;;;7.95;3.10;;;9.40;97.10;;;;;;5091542;28;20112;-40
2022/04/28 08:05:04;;;;;;;6.00;2.70;;;9.50;97.00;;;;;;5104712;28;20539;-41
2022/04/28 08:07:31;;;;;;;5.65;2.58;;;9.60;97.00;;;;;;5093881;28;20419;-41
2022/04/28 08:09:57;;;;;;;7.07;2.50;;;9.60;97.00;;;;;;5104797;28;20032;-42
2022/04/28 08:12:22;;;;;;;7.68;3.05;;;9.60;96.80;;;;;;5093525;28;20066;-43
2022/04/28 08:14:48;;;;;;;7.05;3.22;;;9.70;96.80;;;;;;5104356;28;20023;-40
2022/04/28 08:17:13;;;;;;;5.25;2.95;;;9.70;96.80;;;;;;5098251;28;20035;-42
2022/04/28 08:19:39;;;;;;;8.20;3.60;;;9.70;96.60;;;;;;5100979;28;20085;-44
2022/04/28 08:22:04;;;;;;;7.00;2.95;;;9.80;96.60;;;;;;5100949;28;20099;-41
2022/04/28 08:24:30;;;;;;;8.70;3.47;;;9.80;96.50;;;;;;5097042;28;20556;-40
2022/04/28 08:26:55;;;;;;;8.60;4.43;;;9.90;96.50;;;;;;5103117;28;20035;-41
2022/04/28 08:29:22;;;;;;;6.03;3.25;;;9.90;96.30;;;;;;5096578;28;20535;-41
2022/04/28 08:31:48;;;;;;;8.65;3.33;;;10.00;96.30;;;;;;5104500;28;20069;-41
2022/04/28 08:34:14;;;;;;;6.03;3.30;;;10.00;96.30;;;;;;5093599;28;20015;-42
2022/04/28 08:36:41;;;;;;;8.93;3.22;;;10.00;96.20;;;;;;5095435;28;20084;-40
2022/04/28 08:39:06;;;;;;;4.65;3.13;;;10.10;96.20;;;;;;5098277;28;20558;-41
2022/04/28 08:41:38;;;;;;;5.82;3.67;;;10.10;96.10;;;;;;5085409;28;20153;-43
2022/04/28 08:44:05;;;;;;;6.57;3.58;;;10.10;96.00;;;;;;5098395;28;20020;-42
2022/04/28 08:49:18;;;;;;;5.50;2.97;;;10.20;96.00;;;;;;5092110;28;20544;-41
2022/04/28 08:51:43;;;;;;;9.35;3.67;;;10.20;96.00;;;;;;5106323;28;20073;-41
2022/04/28 08:54:13;;;;;;;9.50;3.30;;;10.20;96.00;;;;;;5093454;28;20028;-41
2022/04/28 08:56:39;;;;;;;7.55;3.50;;;10.30;95.90;;;;;;5105814;28;20020;-41
2022/04/28 08:59:05;;;;;;;7.47;3.25;;;10.30;95.80;;;;;;5094477;28;20032;-41
2022/04/28 09:01:31;;;;;;;8.93;4.10;;;10.40;95.80;;;;;;5104885;28;20034;-42
2022/04/28 09:03:58;;;;;;;9.15;4.32;;;10.40;95.70;;;;;;5096792;28;20032;-41
2022/04/28 09:06:29;;;;;;;9.05;3.80;;;10.40;95.70;;;;;;5103814;28;20062;-41
2022/04/28 09:08:58;;;;;;;8.93;3.80;;;10.50;95.60;;;;;;5097324;28;20399;-41
2022/04/28 09:11:26;;;;;;;8.20;3.92;;;10.50;95.60;;;;;;5101478;28;20057;-42
2022/04/28 09:14:10;;;;;;;6.63;4.05;;;10.60;95.60;;;;;;5099883;28;20027;-42
2022/04/28 09:16:42;;;;;;;6.38;3.15;;;10.60;95.60;;;;;;5101064;28;20131;-41
2022/04/28 09:19:09;;;;;;;4.63;3.20;;;10.70;95.50;;;;;;5099202;28;20031;-38
2022/04/28 09:21:35;;;;;;;5.13;2.85;;;10.80;95.50;;;;;;5100211;28;20109;-41
2022/04/28 09:24:02;;;;;;;7.07;3.55;;;10.80;95.40;;;;;;5100407;28;20024;-40
2022/04/28 09:26:28;;;;;;;9.82;4.00;;;10.90;95.10;;;;;;5097232;28;20491;-40
2022/04/28 09:28:54;;;;;;;8.35;3.75;;;10.90;94.80;;;;;;5104149;28;20036;-40
2022/04/28 09:31:24;;;;;;;9.20;3.42;;;11.00;94.80;;;;;;5094604;28;20039;-41
2022/04/28 09:33:50;;;;;;;6.15;3.80;;;11.00;94.80;;;;;;5104755;28;20115;-39
2022/04/28 09:36:16;;;;;;;8.32;3.72;;;11.00;94.60;;;;;;5087478;28;20021;-40
2022/04/28 09:38:41;;;;;;;6.13;3.70;;;11.00;94.50;;;;;;5085729;28;20113;-41
2022/04/28 09:43:56;;;;;;;7.47;4.15;;;11.10;94.10;;;;;;5090622;28;20571;-40
2022/04/28 09:46:23;;;;;;;7.03;3.90;;;11.10;94.10;;;;;;5099588;28;20028;-39
2022/04/28 09:48:50;;;;;;;7.85;3.78;;;11.10;94.20;;;;;;5088815;28;20032;-41
2022/04/28 09:51:22;;;;;;;6.65;3.10;;;11.20;94.10;;;;;;5095971;28;20035;-41
2022/04/28 09:53:48;;;;;;;8.38;3.65;;;11.20;94.10;;;;;;5109501;28;20098;-42
2022/04/28 09:56:16;;;;;;;5.75;3.13;;;11.20;94.10;;;;;;5096499;28;20688;-42
2022/04/28 09:58:42;;;;;;;6.75;3.63;;;11.30;94.10;;;;;;5108080;28;20126;-42
2022/04/28 10:01:08;;;;;;;4.95;3.28;;;11.30;94.00;;;;;;5097543;28;20024;-41
2022/04/28 10:03:33;;;;;;;10.38;4.10;;;11.30;94.10;;;;;;5108076;28;20028;-41
2022/04/28 10:06:02;;;;;;;8.52;3.95;;;11.40;93.80;;;;;;5098162;28;20589;-42
2022/04/28 10:08:33;;;;;;;6.88;3.30;;;11.40;93.80;;;;;;5106431;28;20054;-39
2022/04/28 10:11:01;;;;;;;5.47;3.38;;;11.50;93.80;;;;;;5100708;28;20480;-41
2022/04/28 10:13:29;;;;;;;9.23;3.33;;;11.60;93.80;;;;;;5103094;28;20024;-41
2022/04/28 10:15:59;;;;;;;7.13;3.30;;;11.60;93.80;;;;;;5103195;28;20056;-38
2022/04/28 10:18:33;;;;;;;5.03;2.90;;;11.70;93.80;;;;;;5102380;28;20068;-41
2022/04/28 10:21:01;;;;;;;6.70;3.10;;;11.90;93.80;;;;;;5103423;28;20027;-42
2022/04/28 10:34:53;;;;;;;7.07;3.42;;;12.20;93.20;;;;;;5107192;28;20157;-42
2022/04/28 10:37:23;;;;;;;6.15;4.13;;;12.30;93.10;;;;;;5095847;28;20051;-40
2022/04/28 10:39:55;;;;;;;6.03;3.67;;;12.40;93.10;;;;;;5107556;28;20446;-40
2022/04/28 10:42:42;;;;;;;5.38;3.03;;;12.40;93.00;;;;;;5097943;28;20456;-42
2022/04/28 10:45:28;;;;;;;7.45;3.53;;;12.40;93.00;;;;;;5067847;28;20119;-41
2022/04/28 10:48:28;;;;;;;6.97;3.90;;;12.50;92.90;;;;;;5098018;28;20044;-43
2022/04/28 10:51:12;;;;;;;7.32;4.35;;;12.50;92.20;;;;;;5088992;28;20035;-42
2022/04/28 10:54:01;;;;;;;6.95;3.75;;;12.50;92.40;;;;;;5096296;28;20039;-42
2022/04/28 10:56:52;;;;;;;7.60;4.18;;;12.50;92.30;;;;;;5088605;28;20024;-41
2022/04/28 10:59:34;;;;;;;10.38;4.22;;;12.60;92.40;;;;;;5073657;28;20044;-41
2022/04/28 11:02:13;;;;;;;8.13;3.22;;;12.60;92.30;;;;;;5105986;28;20035;-41
2022/04/28 11:04:40;;;;;;;5.10;3.40;;;12.70;92.30;;;;;;5098688;28;20087;-41
2022/04/28 11:07:08;;;;;;;6.57;3.90;;;12.80;92.40;;;;;;5106594;28;20608;-41
2022/04/28 11:09:48;;;;;;;4.28;3.13;;;12.80;92.10;;;;;;5085421;28;20150;-41
2022/04/28 11:12:18;;;;;;;4.53;2.97;;;12.90;91.90;;;;;;5106320;28;20012;-41
2022/04/28 11:14:48;;;;;;;6.80;3.28;;;12.90;91.90;;;;;;5085549;28;20883;-41
2022/04/28 11:17:17;;;;;;;4.32;2.83;;;12.90;91.80;;;;;;5105430;28;20020;-42
2022/04/28 11:19:46;;;;;;;4.38;2.38;;;12.90;91.90;;;;;;5096510;28;20066;-41
2022/04/28 11:22:11;;;;;;;5.22;3.45;;;13.00;92.00;;;;;;5105839;28;20050;-40
2022/04/28 11:24:40;;;;;;;4.93;3.20;;;13.10;91.80;;;;;;5095808;28;20050;-42
2022/04/28 11:27:07;;;;;;;6.70;3.85;;;13.20;91.60;;;;;;5108006;28;20030;-41
2022/04/28 11:29:32;;;;;;;4.78;2.90;;;13.20;91.50;;;;;;5092698;28;20398;-41
2022/04/28 11:32:00;;;;;;;8.13;3.25;;;13.20;91.50;;;;;;5108078;28;20012;-40
2022/04/28 11:34:29;;;;;;;6.72;3.10;;;13.30;91.50;;;;;;5094022;28;20099;-41
2022/04/28 11:36:55;;;;;;;11.27;3.30;;;13.20;91.50;;;;;;5094763;28;20019;-42
2022/04/28 11:39:24;;;;;;;6.57;3.00;;;13.30;91.30;;;;;;5098079;28;20024;-41
2022/04/28 11:41:52;;;;;;;6.28;3.15;;;13.30;91.20;;;;;;5088396;28;20409;-41
2022/04/28 11:44:19;;;;;;;4.63;2.88;;;13.40;91.20;;;;;;5095885;28;20109;-40
2022/04/28 11:46:44;;;;;;;5.55;2.67;;;13.50;91.20;;;;;;5089707;28;20128;-42
2022/04/28 11:49:10;;;;;;;7.40;2.78;;;13.60;91.20;;;;;;5094427;28;20089;-42
2022/04/28 11:51:36;;;;;;;3.60;2.60;;;13.70;91.20;;;;;;5091194;28;20020;-41
2022/04/28 11:54:03;;;;;;;7.78;3.25;;;13.80;90.90;;;;;;5091620;28;20032;-41
2022/04/28 11:56:31;;;;;;;7.75;3.83;;;13.90;90.90;;;;;;5094464;28;20111;-41
2022/04/28 11:59:00;;;;;;;5.05;3.35;;;13.90;90.60;;;;;;5088444;28;20035;-42
2022/04/28 12:01:30;;;;;;;4.95;3.25;;;14.00;90.60;;;;;;5095424;28;20024;-41
2022/04/28 12:03:57;;;;;;;7.35;3.63;;;14.00;90.30;;;;;;5087471;28;20085;-41
2022/04/28 12:06:24;;;;;;;6.35;3.47;;;14.00;89.80;;;;;;5097201;28;20028;-41
2022/04/28 12:08:52;;;;;;;8.23;3.70;;;14.00;90.10;;;;;;5087223;28;20086;-42
2022/04/28 12:14:22;;;;;;;6.65;3.85;;;14.00;90.10;;;;;;5087070;28;20704;-40
2022/04/28 12:19:55;;;;;;;6.10;4.22;;;14.10;89.70;;;;;;5102093;28;20092;-42
2022/04/28 12:22:25;;;;;;;4.85;3.50;;;14.20;89.40;;;;;;5098911;28;20192;-42
2022/04/28 12:24:54;;;;;;;8.77;4.10;;;14.20;89.40;;;;;;5103750;28;20019;-40
2022/04/28 12:27:20;;;;;;;4.35;2.90;;;14.30;89.20;;;;;;5096120;28;20040;-41
2022/04/28 12:29:52;;;;;;;5.07;3.50;;;14.40;89.40;;;;;;5105218;28;20053;-40
2022/04/28 12:32:18;;;;;;;9.10;4.23;;;14.40;88.60;;;;;;5084365;28;20028;-41
2022/04/28 12:34:44;;;;;;;5.40;3.42;;;14.40;88.10;;;;;;5105086;28;20184;-40
2022/04/28 12:37:09;;;;;;;6.55;3.65;;;14.50;88.50;;;;;;5101871;28;20687;-41
2022/04/28 12:39:54;;;;;;;5.85;3.42;;;14.50;88.30;;;;;;5104596;28;20015;-39
2022/04/28 12:42:20;;;;;;;5.53;3.30;;;14.60;88.00;;;;;;5094474;28;20031;-42
2022/04/28 12:44:52;;;;;;;6.32;3.10;;;14.60;87.80;;;;;;5105805;28;20368;-41
2022/04/28 12:47:17;;;;;;;6.15;4.05;;;14.60;87.90;;;;;;5093054;28;20020;-41
2022/04/28 12:49:45;;;;;;;5.90;3.35;;;14.60;86.50;;;;;;5105594;28;20498;-43
2022/04/28 12:52:10;;;;;;;6.10;3.58;;;14.60;86.40;;;;;;5092512;28;20762;-42
2022/04/28 12:54:36;;;;;;;6.38;3.15;;;14.60;86.40;;;;;;5104842;28;20027;-41
2022/04/28 12:57:11;;;;;;;5.13;4.05;;;14.60;86.60;;;;;;5093334;28;20545;-40
2022/04/28 12:59:38;;;;;;;5.15;3.20;;;14.70;86.70;;;;;;5064904;28;20392;-42
2022/04/28 13:02:05;;;;;;;7.78;4.07;;;14.80;86.60;;;;;;5091471;28;20031;-41
2022/04/28 13:04:35;;;;;;;6.07;4.25;;;14.80;86.10;;;;;;5086301;28;20028;-41
2022/04/28 13:07:01;;;;;;;6.90;3.95;;;14.80;85.50;;;;;;5094857;28;20035;-41
2022/04/28 13:09:29;;;;;;;10.95;4.40;;;14.90;85.60;;;;;;5087495;28;20032;-41
2022/04/28 13:11:56;;;;;;;5.25;3.38;;;14.90;85.30;;;;;;5092428;28;20027;-43
2022/04/28 13:14:22;;;;;;;6.82;3.58;;;14.90;85.10;;;;;;5091228;28;20042;-39
2022/04/28 13:16:50;;;;;;;5.72;4.00;;;15.00;85.30;;;;;;5091872;28;20392;-41
2022/04/28 13:19:16;;;;;;;4.97;3.20;;;15.00;85.00;;;;;;5097636;28;20085;-40
2022/04/28 13:21:42;;;;;;;6.53;3.30;;;15.10;85.30;;;;;;5090890;28;20074;-41
2022/04/28 13:24:08;;;;;;;5.93;3.80;;;15.20;85.20;;;;;;5100618;28;20055;-43
2022/04/28 13:26:35;;;;;;;7.38;3.60;;;15.20;85.20;;;;;;5089880;28;20019;-40
2022/04/28 13:29:04;;;;;;;9.00;3.70;;;15.20;85.10;;;;;;5099488;28;20075;-39
2022/04/28 13:31:30;;;;;;;8.23;4.10;;;15.30;85.00;;;;;;5090546;28;20029;-42
2022/04/28 13:33:56;;;;;;;5.25;3.55;;;15.30;84.40;;;;;;5097104;28;20045;-42
2022/04/28 13:36:22;;;;;;;6.07;3.65;;;15.30;84.50;;;;;;5089455;28;20016;-43